Time;durP1;ratioP1;P1;durP2;ratioP2;P2;SDS_P1;SDS_P2;PMS_P1;PMS_P2;Temp;Humidity;BMP_temperature;BMP_pressure;BME280_temperature;BME280_humidity;BME280_pressure;Samples;Min_cycle;Max_cycle;Signal;HPM_P1;HPM_P2
2021/09/28 00:01:33;;;;;;;2.67;0.10;;;12.20;99.90;;;;;;4994256;28;20033;-79
2021/09/28 00:03:58;;;;;;;5.57;0.52;;;12.20;99.90;;;;;;5009966;28;20514;-78
2021/09/28 00:06:24;;;;;;;2.97;0.08;;;12.20;99.90;;;;;;5006780;28;20105;-78
2021/09/28 00:08:49;;;;;;;2.55;0.00;;;12.20;99.90;;;;;;5003263;28;20089;-78
2021/09/28 00:11:15;;;;;;;6.10;0.95;;;12.10;99.90;;;;;;5017630;28;20411;-78
2021/09/28 00:13:40;;;;;;;3.70;0.10;;;12.10;99.90;;;;;;5007568;28;20026;-79
2021/09/28 00:16:06;;;;;;;7.30;0.50;;;12.10;99.90;;;;;;5012161;28;20471;-79
2021/09/28 00:18:32;;;;;;;3.20;0.47;;;12.20;99.90;;;;;;4990518;28;20048;-78
2021/09/28 00:20:58;;;;;;;4.38;0.08;;;12.20;99.90;;;;;;4989221;28;20048;-79
2021/09/28 00:23:23;;;;;;;5.50;0.13;;;12.20;99.90;;;;;;4988970;28;20014;-78
2021/09/28 00:25:49;;;;;;;5.10;0.03;;;12.20;99.90;;;;;;5004416;28;20026;-78
2021/09/28 00:28:16;;;;;;;6.00;0.10;;;12.20;99.90;;;;;;5004527;28;20098;-78
2021/09/28 00:30:43;;;;;;;6.97;0.20;;;12.20;99.90;;;;;;5005254;28;20034;-78
2021/09/28 00:33:09;;;;;;;14.80;0.52;;;12.30;99.90;;;;;;5002632;28;20022;-78
2021/09/28 00:35:35;;;;;;;8.35;0.73;;;12.20;99.90;;;;;;5005446;28;20357;-78
2021/09/28 00:38:01;;;;;;;2.38;0.40;;;12.20;99.90;;;;;;5005269;28;20023;-78
2021/09/28 00:40:27;;;;;;;7.63;0.52;;;12.10;99.90;;;;;;4986577;28;20030;-77
2021/09/28 00:42:52;;;;;;;4.72;0.10;;;12.10;99.90;;;;;;5003823;28;20023;-77
2021/09/28 00:45:18;;;;;;;7.35;0.43;;;12.10;99.90;;;;;;5007648;28;20030;-78
2021/09/28 00:47:44;;;;;;;2.83;0.20;;;12.00;99.90;;;;;;4992154;28;20026;-78
2021/09/28 00:50:10;;;;;;;2.13;0.20;;;12.00;99.90;;;;;;5007258;28;20430;-78
2021/09/28 00:52:36;;;;;;;4.90;0.57;;;12.00;99.90;;;;;;5004828;28;20090;-78
2021/09/28 00:55:02;;;;;;;6.43;0.63;;;12.00;99.90;;;;;;4988578;28;20022;-79
2021/09/28 00:57:28;;;;;;;6.50;0.68;;;11.90;99.90;;;;;;5005784;28;20034;-78
2021/09/28 00:59:55;;;;;;;5.13;0.30;;;11.90;99.90;;;;;;5005799;28;20022;-78
2021/09/28 01:02:21;;;;;;;6.90;0.63;;;11.90;99.90;;;;;;4986020;28;20023;-78
2021/09/28 01:04:47;;;;;;;16.33;0.63;;;11.80;99.90;;;;;;5005330;28;20114;-79
2021/09/28 01:07:12;;;;;;;5.65;0.10;;;11.80;99.90;;;;;;4988650;28;20386;-79
2021/09/28 01:09:39;;;;;;;3.53;0.30;;;11.80;99.90;;;;;;5006189;28;20030;-79
2021/09/28 01:12:06;;;;;;;3.10;0.10;;;11.70;99.90;;;;;;5005714;28;20041;-79
2021/09/28 01:14:32;;;;;;;3.03;0.30;;;11.70;99.90;;;;;;4985155;28;20027;-78
2021/09/28 01:16:57;;;;;;;5.10;0.00;;;11.70;99.90;;;;;;4984002;28;20023;-78
2021/09/28 01:19:23;;;;;;;7.70;0.63;;;11.70;99.90;;;;;;4987289;28;20026;-78
2021/09/28 01:21:50;;;;;;;6.10;0.20;;;11.70;99.90;;;;;;5004730;28;20360;-78
2021/09/28 01:24:16;;;;;;;6.60;0.00;;;11.70;99.90;;;;;;4987992;28;20034;-79
2021/09/28 01:26:42;;;;;;;7.07;0.20;;;11.60;99.90;;;;;;4987929;28;20094;-79
2021/09/28 01:29:08;;;;;;;6.22;0.28;;;11.60;99.90;;;;;;5002233;28;20073;-78
2021/09/28 01:31:38;;;;;;;6.15;0.13;;;11.60;99.90;;;;;;5002215;28;20037;-79
2021/09/28 01:34:04;;;;;;;9.05;1.90;;;11.60;99.90;;;;;;4985387;28;20097;-79
2021/09/28 01:36:30;;;;;;;2.13;0.08;;;11.50;99.90;;;;;;4986142;28;20098;-79
2021/09/28 01:38:56;;;;;;;10.90;0.20;;;11.50;99.90;;;;;;4984913;28;20018;-79
2021/09/28 01:41:21;;;;;;;6.43;0.20;;;11.50;99.90;;;;;;5004975;28;20022;-79
2021/09/28 01:43:47;;;;;;;12.73;1.23;;;11.50;99.90;;;;;;4987812;28;20037;-79
2021/09/28 01:46:12;;;;;;;5.97;0.10;;;11.40;99.90;;;;;;4985924;28;20031;-79
2021/09/28 01:48:53;;;;;;;6.88;0.43;;;11.40;99.90;;;;;;4985119;28;20057;-79
2021/09/28 01:51:18;;;;;;;6.18;0.35;;;11.40;99.90;;;;;;4986421;28;20034;-79
2021/09/28 01:53:44;;;;;;;5.75;0.10;;;11.30;99.90;;;;;;5004623;28;20026;-79
2021/09/28 01:56:27;;;;;;;6.45;0.50;;;11.30;99.90;;;;;;5001747;28;20057;-78
2021/09/28 01:58:54;;;;;;;7.20;0.60;;;11.30;99.90;;;;;;4999001;28;20026;-78
2021/09/28 02:01:20;;;;;;;8.02;0.88;;;11.30;99.90;;;;;;4998628;28;20026;-78
2021/09/28 02:03:46;;;;;;;10.75;0.52;;;11.30;99.90;;;;;;4980883;28;20034;-78
2021/09/28 02:06:13;;;;;;;4.78;0.17;;;11.30;99.90;;;;;;4998988;28;20057;-78
2021/09/28 02:08:39;;;;;;;9.02;1.52;;;11.30;99.90;;;;;;4981451;28;20073;-78
2021/09/28 02:11:04;;;;;;;9.95;0.60;;;11.30;99.90;;;;;;4998380;28;20019;-78
2021/09/28 02:13:30;;;;;;;5.05;1.10;;;11.30;99.90;;;;;;4998993;28;20077;-78
2021/09/28 02:15:55;;;;;;;6.43;0.25;;;11.30;99.90;;;;;;4998909;28;20068;-78
2021/09/28 02:18:21;;;;;;;5.50;0.40;;;11.30;99.90;;;;;;4981574;28;20014;-78
2021/09/28 02:20:46;;;;;;;6.18;0.63;;;11.30;99.90;;;;;;4998700;28;20073;-78
2021/09/28 02:23:12;;;;;;;3.75;0.20;;;11.40;99.90;;;;;;4982019;28;20033;-78
2021/09/28 02:25:38;;;;;;;11.63;1.35;;;11.40;99.90;;;;;;4982832;28;20018;-80
2021/09/28 02:28:04;;;;;;;6.05;0.20;;;11.30;99.90;;;;;;4986428;28;20379;-80
2021/09/28 02:30:30;;;;;;;8.70;0.35;;;11.40;99.90;;;;;;4987345;28;20031;-79
2021/09/28 02:32:56;;;;;;;8.27;0.70;;;11.40;99.90;;;;;;4986228;28;20049;-79
2021/09/28 02:35:22;;;;;;;5.35;0.40;;;11.30;99.90;;;;;;5019223;28;20027;-79
2021/09/28 02:37:48;;;;;;;4.53;0.40;;;11.30;99.90;;;;;;4985079;28;20391;-80
2021/09/28 02:40:14;;;;;;;4.13;0.08;;;11.30;99.90;;;;;;4985927;28;20038;-80
2021/09/28 02:42:41;;;;;;;5.32;0.40;;;11.30;99.90;;;;;;5004283;28;20022;-80
2021/09/28 02:45:08;;;;;;;5.63;0.60;;;11.30;99.90;;;;;;4985537;28;20026;-78
2021/09/28 02:47:33;;;;;;;9.30;0.30;;;11.30;99.90;;;;;;5016146;28;20018;-78
2021/09/28 02:49:59;;;;;;;6.07;1.10;;;11.30;99.90;;;;;;5001306;28;20085;-78
2021/09/28 02:52:25;;;;;;;9.57;0.38;;;11.20;99.90;;;;;;4983341;28;20026;-79
2021/09/28 02:54:50;;;;;;;6.65;0.38;;;11.20;99.90;;;;;;5000982;28;20105;-78
2021/09/28 02:57:16;;;;;;;14.45;1.02;;;11.20;99.90;;;;;;4982065;28;20794;-78
2021/09/28 02:59:42;;;;;;;10.65;0.32;;;11.20;99.90;;;;;;4982767;28;20026;-78
2021/09/28 03:02:08;;;;;;;3.78;0.50;;;11.20;99.90;;;;;;4984558;28;20019;-80
2021/09/28 03:04:34;;;;;;;6.47;0.35;;;11.10;99.90;;;;;;4985279;28;20114;-78
2021/09/28 03:07:00;;;;;;;10.05;0.77;;;11.10;99.90;;;;;;4996840;28;20053;-77
2021/09/28 03:09:25;;;;;;;4.57;0.20;;;11.10;99.90;;;;;;4980290;28;20030;-78
2021/09/28 03:11:51;;;;;;;3.97;0.30;;;11.10;99.90;;;;;;4980962;28;20570;-78
2021/09/28 03:14:17;;;;;;;9.38;0.45;;;11.00;99.90;;;;;;4999189;28;20038;-78
2021/09/28 03:16:42;;;;;;;4.22;0.20;;;11.00;99.90;;;;;;4980077;28;20100;-77
2021/09/28 03:19:08;;;;;;;6.28;0.40;;;11.00;99.90;;;;;;4984727;28;20030;-80
2021/09/28 03:21:34;;;;;;;11.50;0.73;;;10.90;99.90;;;;;;4999823;28;20511;-78
2021/09/28 03:23:59;;;;;;;5.35;0.43;;;11.00;99.90;;;;;;4999387;28;20076;-78
2021/09/28 03:26:25;;;;;;;9.52;1.05;;;11.00;99.90;;;;;;5000766;28;20034;-77
2021/09/28 03:28:51;;;;;;;9.30;0.32;;;11.00;99.90;;;;;;4999811;28;20030;-78
2021/09/28 03:31:17;;;;;;;5.65;0.30;;;10.90;99.90;;;;;;4983614;28;20040;-78
2021/09/28 03:33:43;;;;;;;8.60;0.52;;;11.00;99.90;;;;;;4999954;28;20026;-78
2021/09/28 03:36:08;;;;;;;6.82;0.90;;;11.00;99.90;;;;;;4983796;28;20066;-78
2021/09/28 03:38:34;;;;;;;7.70;0.93;;;11.40;99.90;;;;;;4983532;28;20038;-78
2021/09/28 03:40:59;;;;;;;4.93;0.40;;;10.90;99.90;;;;;;5001483;28;20027;-78
2021/09/28 03:43:26;;;;;;;7.30;0.50;;;10.90;99.90;;;;;;5000064;28;20097;-78
2021/09/28 03:45:54;;;;;;;3.30;1.00;;;12.40;99.90;;;;;;5000882;28;20019;-79
2021/09/28 03:48:20;;;;;;;19.50;0.90;;;10.90;99.90;;;;;;4984059;28;20022;-79
2021/09/28 03:50:45;;;;;;;7.18;0.95;;;10.90;99.90;;;;;;5000486;28;20471;-79
2021/09/28 03:53:11;;;;;;;8.13;1.42;;;10.80;99.90;;;;;;5003151;28;20029;-78
2021/09/28 03:55:36;;;;;;;17.00;1.55;;;10.80;99.90;;;;;;4985016;28;20033;-78
2021/09/28 03:58:03;;;;;;;13.43;1.00;;;10.80;99.90;;;;;;5000733;28;20487;-79
2021/09/28 04:00:31;;;;;;;9.38;1.27;;;10.80;99.90;;;;;;4983674;28;20054;-78
2021/09/28 04:02:57;;;;;;;7.70;0.70;;;10.80;99.90;;;;;;5001166;28;20022;-79
2021/09/28 04:05:22;;;;;;;7.55;1.50;;;10.90;99.90;;;;;;5000877;28;20265;-78
2021/09/28 04:07:48;;;;;;;12.68;1.30;;;10.90;99.90;;;;;;4982222;28;20034;-79
2021/09/28 04:10:14;;;;;;;5.35;0.90;;;10.90;99.90;;;;;;5017005;28;20501;-78
2021/09/28 04:12:40;;;;;;;10.23;1.30;;;10.90;99.90;;;;;;5001357;28;20033;-79
2021/09/28 04:15:07;;;;;;;12.65;1.40;;;10.90;99.90;;;;;;5001006;28;20036;-78
2021/09/28 04:17:32;;;;;;;9.68;1.45;;;10.90;99.90;;;;;;4997271;28;20030;-78
2021/09/28 04:19:58;;;;;;;16.80;0.88;;;10.90;99.90;;;;;;4998525;28;20081;-78
2021/09/28 04:22:24;;;;;;;8.75;0.80;;;10.90;99.90;;;;;;4984314;28;20030;-79
2021/09/28 04:24:51;;;;;;;5.65;0.77;;;10.90;99.90;;;;;;5004124;28;20034;-79
2021/09/28 04:27:18;;;;;;;12.85;1.45;;;10.90;99.90;;;;;;4990756;28;20045;-79
2021/09/28 04:29:43;;;;;;;7.00;0.82;;;10.80;99.90;;;;;;4990181;28;20026;-79
2021/09/28 04:32:09;;;;;;;11.38;0.80;;;10.80;99.90;;;;;;4983316;28;20032;-78
2021/09/28 04:34:36;;;;;;;6.82;0.73;;;11.10;99.90;;;;;;5000548;28;20026;-78
2021/09/28 04:37:02;;;;;;;10.30;1.52;;;10.70;99.90;;;;;;4983829;28;20420;-78
2021/09/28 04:39:28;;;;;;;7.50;1.30;;;10.70;99.90;;;;;;5001732;28;20046;-78
2021/09/28 04:41:53;;;;;;;12.02;1.30;;;10.70;99.90;;;;;;5000948;28;20049;-77
2021/09/28 04:44:19;;;;;;;7.53;0.45;;;11.00;99.90;;;;;;5018150;28;20105;-78
2021/09/28 04:46:45;;;;;;;6.68;0.85;;;10.70;99.90;;;;;;5005107;28;20030;-78
2021/09/28 04:49:10;;;;;;;7.40;0.60;;;10.70;99.90;;;;;;4984884;28;20499;-78
2021/09/28 04:51:36;;;;;;;14.02;0.82;;;10.70;99.90;;;;;;4986768;28;20119;-79
2021/09/28 04:54:02;;;;;;;9.80;0.85;;;10.80;99.90;;;;;;4986490;28;20041;-79
2021/09/28 04:56:28;;;;;;;4.35;0.20;;;10.70;99.90;;;;;;5005505;28;20030;-77
2021/09/28 04:58:54;;;;;;;7.53;1.85;;;10.70;99.90;;;;;;5000695;28;20022;-77
2021/09/28 05:01:19;;;;;;;5.28;0.73;;;10.70;99.90;;;;;;5001228;28;20121;-77
2021/09/28 05:03:45;;;;;;;8.10;0.40;;;10.70;99.90;;;;;;4982816;28;20428;-78
2021/09/28 05:06:13;;;;;;;6.28;0.85;;;10.70;99.90;;;;;;4999920;28;20049;-76
2021/09/28 05:08:39;;;;;;;4.53;0.55;;;10.70;99.90;;;;;;4999792;28;20030;-77
2021/09/28 05:11:05;;;;;;;8.40;1.27;;;10.70;99.90;;;;;;5001655;28;20030;-77
2021/09/28 05:13:31;;;;;;;9.82;1.10;;;10.60;99.90;;;;;;4982303;28;20023;-77
2021/09/28 05:15:56;;;;;;;11.05;0.68;;;10.60;99.90;;;;;;4999953;28;20019;-77
2021/09/28 05:18:22;;;;;;;7.05;0.68;;;10.60;99.90;;;;;;5000974;28;20054;-77
2021/09/28 05:20:48;;;;;;;5.18;0.47;;;10.60;99.90;;;;;;4982269;28;20026;-77
2021/09/28 05:23:13;;;;;;;7.68;0.50;;;10.60;99.90;;;;;;4999414;28;20106;-77
2021/09/28 05:25:39;;;;;;;5.40;1.00;;;10.60;99.90;;;;;;5000493;28;20033;-76
2021/09/28 05:28:04;;;;;;;8.57;0.63;;;10.60;99.90;;;;;;4983148;28;20447;-77
2021/09/28 05:30:30;;;;;;;7.15;0.70;;;10.60;99.90;;;;;;4999592;28;20030;-77
2021/09/28 05:32:56;;;;;;;7.05;1.08;;;10.60;99.90;;;;;;4999186;28;20117;-77
2021/09/28 05:35:25;;;;;;;7.78;1.27;;;10.60;99.90;;;;;;5000380;28;20076;-78
2021/09/28 05:37:52;;;;;;;10.68;0.52;;;10.60;99.90;;;;;;5000112;28;20467;-78
2021/09/28 05:40:18;;;;;;;4.90;0.77;;;10.60;99.90;;;;;;4981640;28;20025;-78
2021/09/28 05:42:44;;;;;;;8.88;0.95;;;10.60;99.90;;;;;;4999456;28;20472;-78
2021/09/28 05:45:10;;;;;;;9.02;1.25;;;10.60;99.90;;;;;;4982225;28;20026;-78
2021/09/28 05:47:36;;;;;;;13.52;1.15;;;10.60;99.90;;;;;;4999058;28;20100;-77
2021/09/28 05:50:02;;;;;;;9.40;0.90;;;10.60;99.90;;;;;;4981480;28;20019;-76
2021/09/28 05:52:28;;;;;;;14.27;1.38;;;10.70;99.90;;;;;;4999076;28;20030;-75
2021/09/28 05:54:54;;;;;;;6.43;0.60;;;10.70;99.90;;;;;;4980952;28;20023;-75
2021/09/28 05:57:21;;;;;;;4.18;0.30;;;10.60;99.90;;;;;;4981819;28;20035;-75
2021/09/28 05:59:47;;;;;;;5.57;0.73;;;10.60;99.90;;;;;;4998065;28;20065;-76
2021/09/28 06:02:15;;;;;;;4.63;0.60;;;10.60;99.90;;;;;;4997721;28;20460;-77
2021/09/28 06:04:41;;;;;;;10.20;1.85;;;10.50;99.90;;;;;;4980625;28;20046;-76
2021/09/28 06:07:07;;;;;;;8.48;1.05;;;10.50;99.90;;;;;;4976778;28;20030;-75
2021/09/28 06:09:36;;;;;;;6.95;1.13;;;10.50;99.90;;;;;;4995252;28;20105;-75
2021/09/28 06:12:08;;;;;;;7.40;0.65;;;10.50;99.90;;;;;;4977074;28;20022;-76
2021/09/28 06:14:35;;;;;;;5.07;0.30;;;10.40;99.90;;;;;;4977536;28;20037;-75
2021/09/28 06:17:01;;;;;;;10.20;0.38;;;10.50;99.90;;;;;;4995048;28;20501;-76
2021/09/28 06:19:29;;;;;;;7.40;0.75;;;10.40;99.90;;;;;;4977532;28;20015;-76
2021/09/28 06:21:56;;;;;;;3.53;0.60;;;10.50;99.90;;;;;;4977702;28;20069;-74
2021/09/28 06:24:21;;;;;;;6.80;0.80;;;10.50;99.90;;;;;;4979036;28;20080;-74
2021/09/28 06:26:47;;;;;;;5.20;0.90;;;10.50;99.90;;;;;;4996095;28;20022;-74
2021/09/28 06:29:13;;;;;;;7.72;0.82;;;10.50;99.90;;;;;;4978439;28;20030;-73
2021/09/28 06:31:39;;;;;;;5.57;1.23;;;10.60;99.90;;;;;;4995914;28;20026;-74
2021/09/28 06:34:06;;;;;;;7.78;0.80;;;10.60;99.90;;;;;;4978317;28;20570;-74
2021/09/28 06:36:31;;;;;;;7.13;0.85;;;10.70;99.90;;;;;;4995500;28;20061;-75
2021/09/28 06:38:57;;;;;;;11.32;0.50;;;10.70;99.90;;;;;;4995367;28;20026;-76
2021/09/28 06:41:26;;;;;;;8.15;1.48;;;10.80;99.90;;;;;;4994592;28;20014;-76
2021/09/28 06:43:52;;;;;;;6.43;0.85;;;10.80;99.90;;;;;;4994721;28;20022;-75
2021/09/28 06:46:18;;;;;;;5.43;1.38;;;10.90;99.90;;;;;;4994862;28;20499;-76
2021/09/28 06:48:43;;;;;;;7.22;0.75;;;11.00;99.90;;;;;;4993971;28;20030;-75
2021/09/28 06:51:09;;;;;;;2.90;0.20;;;11.00;99.90;;;;;;4995191;28;20023;-76
2021/09/28 06:53:35;;;;;;;6.32;0.63;;;11.10;99.90;;;;;;4994742;28;20022;-77
2021/09/28 06:56:00;;;;;;;3.85;0.52;;;11.20;99.90;;;;;;4977178;28;20026;-75
2021/09/28 06:58:26;;;;;;;6.32;1.05;;;11.30;99.90;;;;;;4994987;28;20042;-75
2021/09/28 07:00:51;;;;;;;7.15;1.00;;;11.40;99.90;;;;;;4994834;28;20098;-77
2021/09/28 07:03:17;;;;;;;5.43;0.35;;;11.50;99.90;;;;;;4976963;28;20117;-77
2021/09/28 07:05:43;;;;;;;6.28;0.57;;;11.60;99.90;;;;;;4994610;28;20022;-77
2021/09/28 07:08:08;;;;;;;8.35;0.63;;;11.80;99.90;;;;;;4976776;28;20030;-77
2021/09/28 07:10:34;;;;;;;2.42;0.17;;;11.90;99.90;;;;;;4994309;28;20483;-77
2021/09/28 07:13:00;;;;;;;3.53;0.30;;;12.00;99.90;;;;;;4994332;28;20065;-77
2021/09/28 07:15:25;;;;;;;6.70;0.40;;;12.20;99.90;;;;;;4994323;28;20022;-77
2021/09/28 07:17:53;;;;;;;4.70;0.20;;;12.30;99.90;;;;;;4994015;28;20018;-77
2021/09/28 07:20:19;;;;;;;6.43;0.50;;;12.40;99.90;;;;;;4976879;28;20023;-77
2021/09/28 07:22:45;;;;;;;7.20;0.38;;;12.50;99.90;;;;;;4994030;28;20542;-76
2021/09/28 07:25:10;;;;;;;12.93;0.75;;;12.70;99.90;;;;;;4976563;28;20035;-76
2021/09/28 07:27:36;;;;;;;4.20;0.65;;;12.80;99.90;;;;;;4994170;28;20030;-76
2021/09/28 07:30:04;;;;;;;3.72;0.10;;;12.90;99.90;;;;;;4976486;28;20177;-76
2021/09/28 07:32:30;;;;;;;9.20;1.98;;;14.60;99.90;;;;;;4976479;28;20109;-76
2021/09/28 07:34:56;;;;;;;4.97;0.75;;;13.20;99.90;;;;;;4994412;28;20050;-76
2021/09/28 07:37:27;;;;;;;6.90;0.85;;;13.20;99.90;;;;;;4994304;28;20551;-76
2021/09/28 07:39:53;;;;;;;7.65;0.50;;;13.30;99.90;;;;;;4976574;28;20041;-76
2021/09/28 07:42:19;;;;;;;3.25;0.20;;;13.40;99.90;;;;;;4993882;28;20558;-75
2021/09/28 07:44:46;;;;;;;5.47;0.38;;;13.50;99.90;;;;;;4993917;28;20053;-75
2021/09/28 07:47:12;;;;;;;4.07;0.43;;;13.60;99.90;;;;;;4976491;28;20025;-76
2021/09/28 07:49:38;;;;;;;8.35;0.55;;;13.70;99.90;;;;;;4994033;28;20491;-75
2021/09/28 07:52:03;;;;;;;3.70;0.13;;;13.70;99.90;;;;;;4993853;28;20025;-75
2021/09/28 07:54:29;;;;;;;4.18;0.20;;;13.80;99.90;;;;;;4993766;28;20027;-76
2021/09/28 07:56:55;;;;;;;8.05;0.73;;;13.90;99.90;;;;;;4993857;28;20030;-76
2021/09/28 07:59:20;;;;;;;6.05;0.68;;;14.00;99.90;;;;;;4994658;28;20475;-76
2021/09/28 08:01:46;;;;;;;7.57;0.25;;;14.10;99.90;;;;;;4997943;28;20027;-75
2021/09/28 08:04:12;;;;;;;7.60;0.20;;;14.10;99.90;;;;;;4997437;28;20026;-76
2021/09/28 08:06:38;;;;;;;5.88;0.45;;;14.10;99.90;;;;;;4997621;28;20062;-74
2021/09/28 08:09:03;;;;;;;7.32;1.20;;;14.00;99.90;;;;;;4979999;28;20081;-74
2021/09/28 08:11:29;;;;;;;4.15;0.10;;;14.00;99.90;;;;;;4997449;28;20022;-73
2021/09/28 08:13:56;;;;;;;6.57;0.20;;;14.10;99.90;;;;;;4997531;28;20101;-73
2021/09/28 08:16:22;;;;;;;6.20;0.10;;;14.10;99.90;;;;;;4979905;28;20065;-73
2021/09/28 08:18:48;;;;;;;2.17;0.05;;;14.30;99.90;;;;;;4997307;28;20151;-73
2021/09/28 08:21:13;;;;;;;6.80;0.40;;;14.30;99.90;;;;;;4997344;28;20029;-75
2021/09/28 08:23:39;;;;;;;2.97;0.28;;;14.40;99.90;;;;;;4997285;28;20369;-75
2021/09/28 08:31:33;;;;;;;8.13;0.30;;;14.60;99.90;;;;;;4997951;28;20049;-75
2021/09/28 08:33:59;;;;;;;6.07;0.50;;;14.70;99.90;;;;;;4979647;28;20066;-75
2021/09/28 08:36:24;;;;;;;8.15;1.25;;;14.70;99.90;;;;;;4997416;28;20053;-75
2021/09/28 08:38:50;;;;;;;4.75;0.40;;;14.70;99.90;;;;;;4997903;28;20031;-74
2021/09/28 08:41:15;;;;;;;8.63;1.63;;;14.80;99.90;;;;;;4997651;28;20042;-74
2021/09/28 08:43:41;;;;;;;5.22;0.15;;;14.90;99.90;;;;;;4997035;28;20444;-74
2021/09/28 08:46:07;;;;;;;3.13;0.10;;;15.00;99.90;;;;;;4997434;28;20022;-74
2021/09/28 08:48:32;;;;;;;11.20;0.45;;;15.00;99.90;;;;;;4996848;28;20018;-76
2021/09/28 08:50:58;;;;;;;5.03;0.28;;;15.10;99.90;;;;;;4979285;28;20029;-76
2021/09/28 08:53:24;;;;;;;7.47;0.55;;;15.20;99.90;;;;;;4996711;28;20026;-77
2021/09/28 08:55:49;;;;;;;9.23;0.30;;;15.30;99.90;;;;;;4996783;28;20102;-76
2021/09/28 08:58:17;;;;;;;6.60;0.20;;;15.30;99.90;;;;;;4996482;28;20395;-76
2021/09/28 09:00:44;;;;;;;7.10;0.47;;;15.40;99.90;;;;;;4979215;28;20027;-76
2021/09/28 09:03:30;;;;;;;3.25;0.40;;;15.50;99.90;;;;;;4996664;28;20133;-76
2021/09/28 09:05:57;;;;;;;4.32;1.45;;;15.60;99.90;;;;;;4996476;28;20015;-76
2021/09/28 09:08:25;;;;;;;12.15;1.30;;;15.60;99.90;;;;;;4979034;28;20037;-76
2021/09/28 09:11:06;;;;;;;9.90;0.50;;;15.70;99.90;;;;;;4995832;28;20023;-76
2021/09/28 09:13:33;;;;;;;8.38;0.40;;;15.80;99.90;;;;;;4996679;28;20053;-76
2021/09/28 09:15:59;;;;;;;6.00;0.10;;;15.90;99.90;;;;;;4996335;28;20110;-76
2021/09/28 09:18:24;;;;;;;5.80;0.30;;;16.00;99.90;;;;;;4978726;28;20034;-76
2021/09/28 09:20:50;;;;;;;7.90;0.63;;;16.10;99.90;;;;;;4996192;28;20073;-76
2021/09/28 09:23:32;;;;;;;4.30;0.20;;;16.10;99.90;;;;;;4978785;28;20120;-76
2021/09/28 09:26:05;;;;;;;4.70;0.00;;;16.20;99.90;;;;;;4978790;28;20018;-76
2021/09/28 09:28:34;;;;;;;3.50;0.10;;;16.20;99.90;;;;;;4996123;28;20069;-76
2021/09/28 09:31:22;;;;;;;4.38;0.28;;;16.20;99.90;;;;;;4995934;28;20392;-77
2021/09/28 09:33:49;;;;;;;10.45;0.20;;;16.20;99.90;;;;;;4979280;28;20463;-77
2021/09/28 09:36:20;;;;;;;5.00;0.30;;;16.40;99.90;;;;;;4978474;28;20018;-77
2021/09/28 09:38:57;;;;;;;6.05;0.73;;;16.40;99.90;;;;;;4996070;28;20391;-76
2021/09/28 09:41:33;;;;;;;4.30;0.17;;;16.50;99.90;;;;;;4978431;28;20019;-75
2021/09/28 09:44:02;;;;;;;7.80;1.08;;;16.50;99.90;;;;;;4995852;28;20424;-76
2021/09/28 09:46:44;;;;;;;4.82;0.03;;;16.60;99.90;;;;;;4978171;28;20054;-75
2021/09/28 09:49:12;;;;;;;3.22;0.00;;;16.70;99.90;;;;;;5000891;23;20043;-74
2021/09/28 09:52:08;;;;;;;5.75;0.20;;;16.90;99.90;;;;;;4996428;28;20018;-74
2021/09/28 09:54:37;;;;;;;2.40;0.45;;;17.00;99.90;;;;;;4996607;28;20033;-74
2021/09/28 09:57:05;;;;;;;4.10;0.38;;;17.10;99.90;;;;;;4994872;28;20483;-74
2021/09/28 09:59:31;;;;;;;8.30;0.13;;;17.20;99.90;;;;;;4996038;28;20056;-74
2021/09/28 10:01:57;;;;;;;9.27;0.63;;;17.30;99.90;;;;;;4994462;28;20034;-74
2021/09/28 10:04:24;;;;;;;3.40;0.13;;;17.40;99.90;;;;;;4996037;28;20022;-74
2021/09/28 10:06:52;;;;;;;4.72;0.13;;;17.40;99.90;;;;;;4994341;28;20027;-74
2021/09/28 10:09:27;;;;;;;6.87;0.73;;;17.40;99.90;;;;;;4994790;28;20086;-74
2021/09/28 10:11:55;;;;;;;5.57;0.75;;;17.60;99.90;;;;;;4995824;28;20035;-74
2021/09/28 10:14:42;;;;;;;1.70;0.00;;;17.70;99.90;;;;;;4995556;28;20030;-74
2021/09/28 10:17:20;;;;;;;9.45;0.03;;;17.70;99.90;;;;;;4995903;28;20278;-74
2021/09/28 10:19:50;;;;;;;4.95;0.00;;;17.70;99.90;;;;;;4998144;28;20085;-76
2021/09/28 10:22:48;;;;;;;4.15;0.40;;;17.80;99.90;;;;;;4997784;28;20018;-76
2021/09/28 10:25:20;;;;;;;4.22;0.00;;;17.80;99.90;;;;;;4998580;28;20025;-75
2021/09/28 10:27:54;;;;;;;6.50;0.10;;;17.90;99.90;;;;;;4998500;28;20029;-76
2021/09/28 10:30:40;;;;;;;3.58;0.63;;;18.00;99.90;;;;;;4998996;28;20046;-75
2021/09/28 10:33:21;;;;;;;8.45;0.13;;;18.10;99.90;;;;;;4998622;28;20069;-75
2021/09/28 10:35:54;;;;;;;7.43;1.15;;;18.30;99.90;;;;;;4999755;28;20109;-75
2021/09/28 10:38:39;;;;;;;5.40;0.22;;;18.50;99.90;;;;;;4997084;28;20450;-75
2021/09/28 10:41:05;;;;;;;1.20;0.00;;;18.60;99.90;;;;;;4997552;28;20077;-75
2021/09/28 10:43:31;;;;;;;4.75;0.17;;;18.70;99.90;;;;;;4998915;28;20038;-75
2021/09/28 10:46:00;;;;;;;3.22;0.10;;;18.80;99.90;;;;;;4998920;28;20101;-76
2021/09/28 10:48:28;;;;;;;7.32;1.02;;;18.90;99.90;;;;;;4998483;28;20023;-75
2021/09/28 10:51:21;;;;;;;2.67;0.10;;;19.00;99.90;;;;;;4998503;28;20086;-75
2021/09/28 10:53:53;;;;;;;5.13;0.03;;;19.00;99.90;;;;;;4997395;28;20019;-75
2021/09/28 10:56:22;;;;;;;6.30;0.08;;;19.00;99.90;;;;;;4998871;28;20502;-75
2021/09/28 10:59:02;;;;;;;4.65;0.05;;;19.10;99.90;;;;;;4996869;28;20406;-75
2021/09/28 11:01:30;;;;;;;2.35;0.15;;;19.20;99.90;;;;;;4997307;28;20025;-76
2021/09/28 11:04:00;;;;;;;6.00;0.45;;;19.50;99.90;;;;;;4999141;28;20022;-76
2021/09/28 11:06:42;;;;;;;1.65;0.00;;;19.30;99.90;;;;;;4998459;28;20026;-76
2021/09/28 11:09:08;;;;;;;6.47;0.10;;;19.20;99.90;;;;;;4998302;28;20026;-76
2021/09/28 11:11:34;;;;;;;7.43;0.30;;;19.10;99.90;;;;;;4998059;28;20073;-76
2021/09/28 11:14:02;;;;;;;6.10;0.45;;;19.00;99.90;;;;;;4998443;28;20023;-76
2021/09/28 11:16:28;;;;;;;5.20;0.08;;;19.00;99.90;;;;;;4997075;28;20076;-75
2021/09/28 11:19:03;;;;;;;7.85;0.60;;;19.10;99.90;;;;;;4998459;28;20048;-75
2021/09/28 11:21:29;;;;;;;4.57;0.20;;;19.40;99.90;;;;;;4997685;28;20022;-75
2021/09/28 11:23:55;;;;;;;6.95;0.00;;;19.80;99.90;;;;;;4996907;28;20022;-75
2021/09/28 11:26:39;;;;;;;4.78;0.10;;;20.10;99.90;;;;;;4996861;28;20022;-75
2021/09/28 11:29:08;;;;;;;5.30;0.40;;;20.10;99.30;;;;;;4998961;28;20033;-75
2021/09/28 11:31:37;;;;;;;4.38;0.15;;;19.80;98.50;;;;;;4996722;28;20105;-75
2021/09/28 11:34:03;;;;;;;4.05;0.10;;;19.50;98.90;;;;;;4997629;28;20105;-75
2021/09/28 11:36:37;;;;;;;5.82;0.55;;;19.20;99.90;;;;;;4998304;28;20076;-75
2021/09/28 11:39:06;;;;;;;5.03;0.10;;;19.30;99.90;;;;;;4996724;28;20023;-76
2021/09/28 11:41:36;;;;;;;4.32;0.00;;;19.60;99.90;;;;;;4998003;28;20022;-75
2021/09/28 11:44:03;;;;;;;3.45;0.47;;;20.00;99.60;;;;;;4997230;28;20026;-76
2021/09/28 11:46:31;;;;;;;4.18;0.00;;;20.40;96.10;;;;;;4996601;28;20523;-75
2021/09/28 11:49:05;;;;;;;2.70;0.20;;;20.60;94.50;;;;;;4997897;28;20026;-75
2021/09/28 11:51:39;;;;;;;7.53;0.00;;;21.00;95.10;;;;;;4997627;28;20034;-75
2021/09/28 11:54:12;;;;;;;2.58;0.25;;;21.30;91.90;;;;;;4996254;28;20431;-75
2021/09/28 11:56:42;;;;;;;2.50;0.00;;;21.40;89.50;;;;;;4996462;28;20038;-76
2021/09/28 11:59:20;;;;;;;6.50;0.45;;;21.60;89.40;;;;;;4997658;28;20042;-75
2021/09/28 12:01:48;;;;;;;3.90;0.20;;;21.60;88.70;;;;;;4996556;28;20027;-75
2021/09/28 12:07:00;;;;;;;4.78;0.10;;;21.60;88.10;;;;;;4997134;28;20069;-76
2021/09/28 12:09:53;;;;;;;6.53;0.00;;;21.60;88.50;;;;;;4997317;28;20113;-76
2021/09/28 12:12:25;;;;;;;3.35;0.32;;;21.60;89.50;;;;;;4999978;28;20093;-76
2021/09/28 12:15:08;;;;;;;4.82;0.30;;;21.70;85.10;;;;;;4997946;28;20026;-76
2021/09/28 12:17:38;;;;;;;3.92;0.00;;;22.10;88.10;;;;;;4997965;28;20033;-76
2021/09/28 12:20:06;;;;;;;3.85;0.25;;;22.10;79.70;;;;;;4997090;28;20091;-75
2021/09/28 12:22:43;;;;;;;2.90;0.00;;;21.90;80.90;;;;;;4999033;28;20030;-76
2021/09/28 12:25:22;;;;;;;5.68;0.55;;;21.80;81.40;;;;;;4999642;28;20026;-76
2021/09/28 12:28:02;;;;;;;4.07;0.10;;;21.70;81.80;;;;;;5000016;28;20018;-77
2021/09/28 12:30:32;;;;;;;5.50;0.25;;;21.70;75.40;;;;;;5000806;28;20064;-80
2021/09/28 12:32:58;;;;;;;3.70;0.00;;;21.70;79.40;;;;;;5001302;28;20015;-76
2021/09/28 12:35:33;;;;;;;6.13;0.00;;;22.00;77.20;;;;;;4998511;28;20062;-77
2021/09/28 12:38:09;;;;;;;2.05;0.00;;;21.80;73.10;;;;;;5002211;28;20054;-80
2021/09/28 12:40:43;;;;;;;4.93;0.00;;;21.80;76.20;;;;;;4998345;28;20026;-75
2021/09/28 12:43:14;;;;;;;1.23;0.20;;;22.00;72.70;;;;;;5000601;28;20054;-75
2021/09/28 12:45:55;;;;;;;3.40;0.00;;;22.00;71.60;;;;;;5000470;28;20034;-75
2021/09/28 12:48:38;;;;;;;5.90;0.03;;;22.00;70.10;;;;;;5005072;28;20062;-76
2021/09/28 12:51:09;;;;;;;4.03;0.20;;;22.10;72.70;;;;;;5002441;28;20475;-76
2021/09/28 12:53:35;;;;;;;1.20;0.00;;;22.20;71.80;;;;;;5003864;28;20033;-76
2021/09/28 12:56:04;;;;;;;3.13;0.10;;;22.20;71.80;;;;;;5004974;28;20058;-75
2021/09/28 12:58:31;;;;;;;3.70;0.08;;;21.90;71.00;;;;;;5002273;28;20026;-75